createdAt,value
2023-09-08T00:00:12.151Z,82.12
2023-09-08T00:02:41.298Z,81.91
2023-09-08T00:05:10.305Z,81.90
2023-09-08T00:07:39.305Z,82.32
2023-09-08T00:10:09.233Z,82.27
2023-09-08T00:12:37.886Z,82.28
2023-09-08T00:15:08.380Z,83.62
2023-09-08T00:17:39.113Z,83.81
2023-09-08T00:20:43.148Z,83.38
2023-09-08T00:23:12.091Z,83.58
2023-09-08T00:25:40.729Z,83.93
2023-09-08T00:28:09.429Z,83.93
2023-09-08T00:30:38.404Z,84.44
2023-09-08T00:33:10.014Z,85.12
2023-09-08T00:35:39.131Z,85.63
2023-09-08T00:38:08.604Z,86.15
2023-09-08T00:40:37.335Z,86.16
2023-09-08T00:43:06.231Z,86.84
2023-09-08T00:45:40.078Z,86.88
2023-09-08T00:48:11.414Z,86.96
2023-09-08T00:50:41.026Z,87.43
2023-09-08T00:53:10.563Z,87.71
2023-09-08T00:55:41.361Z,87.81
2023-09-08T00:58:10.300Z,87.70
2023-09-08T01:00:38.938Z,87.70
2023-09-08T01:03:07.717Z,87.99
2023-09-08T01:05:38.076Z,87.63
2023-09-08T01:08:09.091Z,87.65
2023-09-08T01:10:40.311Z,88.07
2023-09-08T01:13:08.949Z,87.78
2023-09-08T01:15:37.850Z,87.87
2023-09-08T01:18:09.807Z,88.52
2023-09-08T01:20:58.326Z,88.58
2023-09-08T01:23:38.711Z,88.47
2023-09-08T01:26:13.928Z,88.47
2023-09-08T01:28:45.789Z,88.31
2023-09-08T01:31:15.731Z,88.99
2023-09-08T01:33:50.323Z,89.38
2023-09-08T01:36:19.279Z,89.20
2023-09-08T01:38:48.065Z,89.47
2023-09-08T01:41:18.053Z,89.16
2023-09-08T01:43:46.889Z,89.12
2023-09-08T01:46:15.862Z,89.49
2023-09-08T01:48:44.945Z,89.73
2023-09-08T01:51:14.227Z,90.07
2023-09-08T01:53:43.419Z,90.28
2023-09-08T01:56:14.570Z,90.46
2023-09-08T01:58:45.523Z,90.32
2023-09-08T02:01:14.415Z,90.64
2023-09-08T02:03:43.638Z,90.69
2023-09-08T02:06:15.774Z,91.38
2023-09-08T02:08:58.591Z,91.23
2023-09-08T02:11:27.913Z,90.63
2023-09-08T02:13:58.799Z,90.87
2023-09-08T02:16:27.933Z,91.44
2023-09-08T02:18:56.847Z,91.10
2023-09-08T02:21:26.041Z,90.61
2023-09-08T02:23:55.963Z,91.12
2023-09-08T02:26:27.719Z,90.86
2023-09-08T02:28:57.916Z,91.52
2023-09-08T02:31:27.260Z,91.63
2023-09-08T02:34:07.441Z,91.81
2023-09-08T02:36:38.685Z,92.09
2023-09-08T02:39:08.192Z,91.94
2023-09-08T02:41:36.825Z,92.11
2023-09-08T02:44:08.019Z,92.99
2023-09-08T02:46:37.882Z,93.16
2023-09-08T02:49:06.645Z,93.49
2023-09-08T02:51:35.529Z,93.06
2023-09-08T02:54:24.376Z,93.21
2023-09-08T02:56:55.716Z,93.86
2023-09-08T02:59:25.695Z,94.41
2023-09-08T03:01:54.921Z,95.61
2023-09-08T03:04:26.476Z,96.27
2023-09-08T03:06:55.400Z,96.46
2023-09-08T03:09:24.188Z,97.17
2023-09-08T03:11:53.240Z,98.04
2023-09-08T03:14:22.347Z,98.35
2023-09-08T03:16:52.430Z,98.77
2023-09-08T03:19:21.215Z,99.34
2023-09-08T03:21:49.915Z,99.47
2023-09-08T03:24:18.693Z,100.00
2023-09-08T03:26:47.421Z,100.00
2023-09-08T03:29:16.009Z,99.83
2023-09-08T03:31:44.854Z,99.22
2023-09-08T03:34:15.410Z,99.54
2023-09-08T03:36:44.316Z,99.66
2023-09-08T03:39:13.056Z,99.51
2023-09-08T03:41:42.002Z,100.00
2023-09-08T03:44:11.139Z,100.00
2023-09-08T03:46:40.302Z,100.00
2023-09-08T03:49:12.521Z,100.00
2023-09-08T03:51:42.854Z,100.00
2023-09-08T03:54:14.211Z,100.00
2023-09-08T03:56:42.833Z,100.00
2023-09-08T03:59:11.709Z,100.00
2023-09-08T04:01:41.049Z,100.00
2023-09-08T04:04:12.388Z,100.00
2023-09-08T04:06:45.321Z,100.00
2023-09-08T04:09:14.138Z,100.00
2023-09-08T04:11:43.605Z,100.00
2023-09-08T04:14:12.533Z,100.00
2023-09-08T04:16:41.249Z,100.00
2023-09-08T04:19:13.513Z,100.00
2023-09-08T04:21:43.287Z,100.00
2023-09-08T04:24:13.855Z,100.00
2023-09-08T04:26:42.582Z,100.00
2023-09-08T04:29:11.674Z,100.00
2023-09-08T04:31:40.775Z,100.00
2023-09-08T04:34:09.623Z,100.00
2023-09-08T04:36:38.336Z,100.00
2023-09-08T04:39:07.031Z,100.00
2023-09-08T04:41:36.978Z,100.00
2023-09-08T04:44:06.055Z,100.00
2023-09-08T04:46:48.936Z,100.00
2023-09-08T04:49:17.586Z,100.00
2023-09-08T04:51:46.260Z,100.00
2023-09-08T04:54:14.990Z,100.00
2023-09-08T04:56:45.149Z,100.00
2023-09-08T04:59:13.795Z,100.00
2023-09-08T05:01:42.673Z,99.97
2023-09-08T05:04:11.543Z,99.95
2023-09-08T05:06:40.769Z,99.34
2023-09-08T05:09:09.899Z,98.88
2023-09-08T05:11:39.031Z,98.50
2023-09-08T05:14:09.919Z,97.66
2023-09-08T05:16:39.203Z,97.33
2023-09-08T05:19:08.253Z,97.72
2023-09-08T05:21:38.264Z,98.07
2023-09-08T05:24:08.148Z,97.42
2023-09-08T05:26:39.918Z,97.69
2023-09-08T05:29:09.999Z,97.02
2023-09-08T05:31:39.236Z,96.80
2023-09-08T05:34:08.075Z,96.62
2023-09-08T05:36:38.030Z,96.36
2023-09-08T05:39:06.947Z,95.79
2023-09-08T05:41:35.864Z,96.01
2023-09-08T05:44:04.801Z,96.02
2023-09-08T05:46:34.946Z,95.55
2023-09-08T05:49:03.738Z,94.80
2023-09-08T05:51:33.365Z,94.19
2023-09-08T05:54:02.232Z,93.71
2023-09-08T05:56:32.753Z,93.27
2023-09-08T05:59:02.322Z,92.51
2023-09-08T06:01:31.591Z,92.22
2023-09-08T06:04:02.596Z,92.20
2023-09-08T06:06:31.627Z,91.46
2023-09-08T06:09:00.736Z,90.52
2023-09-08T06:11:30.591Z,90.16
2023-09-08T06:14:00.567Z,89.58
2023-09-08T06:16:29.592Z,89.12
2023-09-08T06:18:58.506Z,88.92
2023-09-08T06:21:28.492Z,88.69
2023-09-08T06:23:57.202Z,88.21
2023-09-08T06:26:25.942Z,88.08
2023-09-08T06:28:55.006Z,87.62
2023-09-08T06:31:24.247Z,87.18
2023-09-08T06:33:53.402Z,87.15
2023-09-08T06:36:22.717Z,86.40
2023-09-08T06:38:53.144Z,86.35
2023-09-08T06:41:24.023Z,85.48
2023-09-08T06:43:53.126Z,84.75
2023-09-08T06:46:21.784Z,83.63
2023-09-08T06:48:50.670Z,83.24
2023-09-08T06:51:20.716Z,82.25
2023-09-08T06:53:58.072Z,81.70
2023-09-08T06:56:26.844Z,81.06
2023-09-08T06:58:55.451Z,79.86
2023-09-08T07:01:24.322Z,78.79
2023-09-08T07:03:53.351Z,78.07
2023-09-08T07:06:23.290Z,77.15
2023-09-08T07:08:52.318Z,76.38
2023-09-08T07:11:22.684Z,75.29
2023-09-08T07:13:51.513Z,73.29
2023-09-08T07:16:20.247Z,68.99
2023-09-08T07:18:49.184Z,61.59
2023-09-08T07:21:17.903Z,56.35
2023-09-08T07:24:08.378Z,50.57
2023-09-08T07:26:38.526Z,45.15
2023-09-08T07:29:10.290Z,42.96
2023-09-08T07:31:39.521Z,40.93
2023-09-08T07:34:08.387Z,40.99
2023-09-08T07:36:37.983Z,39.20
2023-09-08T07:39:11.709Z,38.84
2023-09-08T07:41:42.474Z,37.39
2023-09-08T07:44:11.329Z,35.98
2023-09-08T07:46:39.972Z,35.16
2023-09-08T07:49:08.587Z,32.59
2023-09-08T07:51:37.142Z,31.50
2023-09-08T07:54:06.351Z,32.51
2023-09-08T07:56:35.220Z,32.93
2023-09-08T07:59:05.698Z,31.96
2023-09-08T08:01:34.695Z,30.17
2023-09-08T08:04:04.911Z,29.70
2023-09-08T08:06:33.834Z,29.45
2023-09-08T08:09:03.410Z,29.73
2023-09-08T08:11:32.230Z,28.52
2023-09-08T08:14:02.107Z,26.84
2023-09-08T08:16:32.636Z,26.94
2023-09-08T08:19:04.561Z,26.91
2023-09-08T08:21:33.284Z,27.64
2023-09-08T08:24:02.368Z,27.37
2023-09-08T08:26:33.740Z,25.78
2023-09-08T08:29:02.435Z,25.68
2023-09-08T08:31:34.175Z,27.46
2023-09-08T08:34:02.973Z,27.70
2023-09-08T08:36:31.684Z,27.10
2023-09-08T08:39:00.531Z,25.78
2023-09-08T08:41:30.844Z,26.38
2023-09-08T08:44:00.786Z,28.23
2023-09-08T08:46:30.121Z,28.88
2023-09-08T08:49:01.643Z,27.13
2023-09-08T08:51:34.430Z,26.20
2023-09-08T08:54:05.481Z,26.36
2023-09-08T08:56:35.170Z,25.76
2023-09-08T08:59:04.129Z,23.84
2023-09-08T09:01:33.626Z,22.92
2023-09-08T09:04:07.782Z,24.11
2023-09-08T09:06:37.075Z,25.07
2023-09-08T09:09:06.173Z,24.60
2023-09-08T09:11:34.836Z,23.63
2023-09-08T09:14:03.721Z,23.44
2023-09-08T09:16:32.424Z,21.52
2023-09-08T09:19:03.396Z,22.50
2023-09-08T09:21:44.586Z,21.65
2023-09-08T09:24:18.832Z,21.29
2023-09-08T09:26:54.276Z,20.86
2023-09-08T09:29:23.103Z,20.67
2023-09-08T09:31:56.043Z,20.38
2023-09-08T09:34:26.314Z,20.16
2023-09-08T09:36:55.049Z,18.89
2023-09-08T09:39:27.521Z,19.92
2023-09-08T09:41:57.452Z,20.32
2023-09-08T09:44:27.145Z,21.43
2023-09-08T09:46:56.464Z,20.53
2023-09-08T09:49:28.165Z,20.29
2023-09-08T09:51:56.922Z,20.86
2023-09-08T09:54:25.571Z,19.59
2023-09-08T09:56:55.304Z,20.00
2023-09-08T09:59:25.345Z,19.23
2023-09-08T10:01:55.373Z,17.34
2023-09-08T10:04:24.541Z,16.83
2023-09-08T10:06:55.568Z,16.76
2023-09-08T10:09:26.087Z,17.03
2023-09-08T10:11:56.825Z,17.28
2023-09-08T10:14:27.108Z,19.38
2023-09-08T10:17:01.394Z,18.15
2023-09-08T10:19:31.399Z,18.64
2023-09-08T10:22:05.614Z,17.91
2023-09-08T10:24:36.919Z,19.09
2023-09-08T10:27:09.674Z,17.59
2023-09-08T10:29:38.953Z,16.89
2023-09-08T10:32:10.365Z,17.73
2023-09-08T10:34:42.255Z,18.80
2023-09-08T10:37:22.925Z,17.64
2023-09-08T10:39:52.069Z,15.75
2023-09-08T10:42:27.415Z,18.03
2023-09-08T10:45:05.504Z,15.73
2023-09-08T10:47:41.912Z,16.52
2023-09-08T10:50:18.928Z,19.79
2023-09-08T10:53:06.862Z,17.51
2023-09-08T10:55:42.870Z,15.80
2023-09-08T10:58:12.665Z,16.18
2023-09-08T11:00:49.856Z,15.86
2023-09-08T11:03:29.425Z,16.01
2023-09-08T11:05:58.555Z,16.70
2023-09-08T11:08:29.419Z,16.55
2023-09-08T11:10:58.929Z,17.35
2023-09-08T11:13:27.535Z,17.22
2023-09-08T11:15:56.201Z,16.49
2023-09-08T11:18:28.501Z,16.31
2023-09-08T11:20:58.512Z,16.76
2023-09-08T11:23:28.658Z,16.25
2023-09-08T11:25:57.559Z,15.38
2023-09-08T11:28:28.416Z,15.39
2023-09-08T11:30:57.781Z,15.45
2023-09-08T11:33:26.971Z,14.74
2023-09-08T11:35:59.192Z,14.76
2023-09-08T11:38:31.107Z,14.46
2023-09-08T11:41:00.912Z,15.08
2023-09-08T11:43:29.520Z,15.73
2023-09-08T11:45:58.313Z,14.88
2023-09-08T11:48:27.213Z,14.55
2023-09-08T11:50:56.203Z,14.96
2023-09-08T11:53:25.701Z,14.61
2023-09-08T11:55:56.083Z,15.12
2023-09-08T11:58:25.080Z,14.82
2023-09-08T12:00:53.882Z,15.41
2023-09-08T12:03:22.806Z,14.14
2023-09-08T12:05:54.081Z,15.21
2023-09-08T12:08:22.892Z,15.67
2023-09-08T12:10:51.748Z,15.93
2023-09-08T12:13:24.836Z,16.37
2023-09-08T12:16:20.440Z,16.32
2023-09-08T12:18:49.834Z,15.32
2023-09-08T12:21:18.590Z,15.36
2023-09-08T12:23:51.163Z,14.59
2023-09-08T12:26:20.462Z,15.07
2023-09-08T12:28:50.528Z,15.30
2023-09-08T12:31:19.823Z,17.13
2023-09-08T12:33:48.777Z,16.40
2023-09-08T12:36:19.406Z,15.83
2023-09-08T12:38:53.513Z,16.05
2023-09-08T12:41:22.402Z,16.45
2023-09-08T12:43:53.155Z,16.12
2023-09-08T12:46:21.855Z,15.61
2023-09-08T12:48:50.556Z,16.37
2023-09-08T12:51:19.396Z,15.64
2023-09-08T12:53:48.114Z,15.14
2023-09-08T12:56:17.328Z,15.10
2023-09-08T12:58:46.523Z,14.95
2023-09-08T13:01:16.626Z,15.62
2023-09-08T13:03:45.243Z,15.53
2023-09-08T13:06:13.963Z,14.79
2023-09-08T13:08:42.546Z,14.63
2023-09-08T13:11:11.085Z,16.47
2023-09-08T13:13:39.718Z,15.38
2023-09-08T13:16:08.321Z,15.02
2023-09-08T13:18:39.871Z,14.12
2023-09-08T13:21:08.792Z,15.49
2023-09-08T13:23:37.606Z,14.96
2023-09-08T13:26:06.175Z,15.12
2023-09-08T13:28:35.154Z,14.51
2023-09-08T13:31:04.140Z,14.85
2023-09-08T13:33:32.879Z,15.23
2023-09-08T13:36:02.850Z,15.44
2023-09-08T13:38:31.754Z,15.69
2023-09-08T13:41:00.416Z,16.50
2023-09-08T13:43:28.969Z,16.19
2023-09-08T13:45:57.633Z,15.75
2023-09-08T13:48:26.540Z,15.83
2023-09-08T13:50:56.077Z,17.50
2023-09-08T13:53:41.813Z,16.29
2023-09-08T13:56:19.999Z,16.68
2023-09-08T13:58:51.216Z,16.72
2023-09-08T14:01:21.254Z,15.74
2023-09-08T14:06:29.782Z,15.21
2023-09-08T14:11:56.117Z,16.87
2023-09-08T14:14:22.689Z,18.00
2023-09-08T14:16:51.442Z,17.52
2023-09-08T14:19:20.143Z,17.78
2023-09-08T14:21:48.724Z,17.89
2023-09-08T14:24:18.602Z,19.27
2023-09-08T14:26:47.414Z,18.56
2023-09-08T14:29:16.114Z,17.96
2023-09-08T14:31:44.978Z,19.67
2023-09-08T14:34:13.784Z,21.46
2023-09-08T14:36:42.357Z,22.14
2023-09-08T14:39:11.149Z,22.18
2023-09-08T14:41:41.176Z,21.96
2023-09-08T14:44:09.792Z,21.98
2023-09-08T14:46:38.384Z,23.13
2023-09-08T14:49:06.981Z,21.92
2023-09-08T14:51:35.750Z,21.91
2023-09-08T14:54:04.909Z,22.11
2023-09-08T14:56:33.532Z,23.28
2023-09-08T14:59:03.711Z,25.01
2023-09-08T15:01:32.558Z,25.26
2023-09-08T15:04:01.702Z,25.24
2023-09-08T15:06:30.484Z,26.73
2023-09-08T15:08:59.044Z,27.02
2023-09-08T15:11:27.594Z,27.72
2023-09-08T15:13:56.536Z,29.68
2023-09-08T15:16:26.633Z,30.72
2023-09-08T15:18:57.975Z,29.38
2023-09-08T15:21:28.755Z,29.50
2023-09-08T15:23:57.622Z,29.93
2023-09-08T15:26:26.297Z,30.58
2023-09-08T15:28:54.969Z,30.88
2023-09-08T15:31:24.682Z,31.71
2023-09-08T15:33:55.038Z,31.24
2023-09-08T15:36:24.088Z,31.95
2023-09-08T15:38:52.758Z,32.13
2023-09-08T15:41:21.582Z,32.20
2023-09-08T15:43:53.326Z,32.68
2023-09-08T15:46:22.477Z,32.73
2023-09-08T15:48:51.015Z,32.77
2023-09-08T15:51:20.982Z,33.88
2023-09-08T15:53:49.720Z,33.57
2023-09-08T15:56:18.335Z,33.84
2023-09-08T15:58:47.065Z,34.68
2023-09-08T16:01:15.856Z,35.00
2023-09-08T16:03:45.145Z,34.81
2023-09-08T16:06:14.659Z,35.75
2023-09-08T16:08:44.644Z,36.07
2023-09-08T16:11:13.523Z,35.70
2023-09-08T16:13:42.194Z,36.37
2023-09-08T16:16:10.808Z,36.04
2023-09-08T16:18:39.489Z,36.47
2023-09-08T16:21:08.049Z,37.11
2023-09-08T16:23:36.940Z,36.19
2023-09-08T16:26:07.123Z,36.38
2023-09-08T16:28:36.102Z,36.51
2023-09-08T16:31:06.607Z,37.12
2023-09-08T16:33:36.226Z,37.89
2023-09-08T16:36:05.188Z,38.08
2023-09-08T16:38:35.729Z,38.61
2023-09-08T16:41:04.370Z,39.53
2023-09-08T16:43:34.662Z,39.81
2023-09-08T16:46:04.701Z,39.39
2023-09-08T16:48:33.553Z,39.87
2023-09-08T16:51:02.097Z,41.20
2023-09-08T16:53:30.780Z,41.11
2023-09-08T16:55:59.659Z,42.14
2023-09-08T16:58:30.230Z,41.59
2023-09-08T17:01:00.388Z,41.12
2023-09-08T17:03:29.052Z,41.42
2023-09-08T17:05:57.763Z,41.19
2023-09-08T17:08:29.006Z,44.37
2023-09-08T17:10:58.494Z,45.32
2023-09-08T17:13:27.271Z,47.22
2023-09-08T17:15:56.037Z,48.68
2023-09-08T17:18:26.959Z,50.01
2023-09-08T17:20:57.724Z,50.91
2023-09-08T17:23:26.405Z,51.57
2023-09-08T17:25:55.151Z,53.41
2023-09-08T17:28:23.856Z,54.60
2023-09-08T17:30:52.709Z,55.39
2023-09-08T17:33:21.492Z,56.28
2023-09-08T17:35:51.586Z,57.01
2023-09-08T17:38:20.220Z,57.72
2023-09-08T17:40:48.922Z,58.47
2023-09-08T17:43:17.737Z,59.13
2023-09-08T17:45:47.506Z,59.82
2023-09-08T17:48:16.475Z,60.20
2023-09-08T17:50:45.240Z,61.34
2023-09-08T17:53:15.453Z,62.45
2023-09-08T17:55:43.952Z,63.35
2023-09-08T17:58:12.961Z,64.47
2023-09-08T18:00:41.805Z,65.57
2023-09-08T18:03:12.820Z,66.09
2023-09-08T18:05:44.664Z,67.11
2023-09-08T18:08:13.731Z,67.54
2023-09-08T18:10:43.853Z,68.23
2023-09-08T18:13:12.595Z,68.76
2023-09-08T18:15:41.224Z,69.73
2023-09-08T18:18:10.206Z,70.53
2023-09-08T18:20:38.925Z,71.02
2023-09-08T18:23:07.426Z,71.58
2023-09-08T18:25:36.132Z,72.72
2023-09-08T18:28:08.776Z,73.35
2023-09-08T18:30:37.459Z,73.22
2023-09-08T18:33:06.454Z,73.38
2023-09-08T18:35:35.296Z,74.06
2023-09-08T18:38:04.510Z,73.23
2023-09-08T18:40:33.176Z,73.60
2023-09-08T18:43:01.908Z,74.17
2023-09-08T18:45:31.879Z,75.40
2023-09-08T18:48:00.595Z,76.11
2023-09-08T18:50:29.162Z,76.79
2023-09-08T18:52:57.829Z,76.92
2023-09-08T18:55:26.598Z,76.35
2023-09-08T18:57:55.462Z,76.78
2023-09-08T19:00:24.083Z,77.34
2023-09-08T19:02:54.426Z,77.69
2023-09-08T19:05:23.122Z,77.98
2023-09-08T19:07:51.973Z,78.22
2023-09-08T19:10:20.717Z,78.40
2023-09-08T19:12:49.249Z,79.06
2023-09-08T19:15:18.401Z,79.68
2023-09-08T19:17:47.664Z,80.39
2023-09-08T19:20:17.715Z,80.97
2023-09-08T19:22:46.305Z,81.54
2023-09-08T19:25:15.317Z,82.58
2023-09-08T19:27:44.305Z,82.31
2023-09-08T19:30:13.767Z,82.61
2023-09-08T19:32:43.350Z,82.22
2023-09-08T19:35:12.752Z,81.83
2023-09-08T19:37:43.938Z,82.31
2023-09-08T19:40:12.938Z,83.10
2023-09-08T19:42:41.698Z,83.96
2023-09-08T19:45:11.332Z,84.12
2023-09-08T19:47:40.203Z,84.20
2023-09-08T19:50:09.901Z,84.03
2023-09-08T19:52:40.463Z,85.02
2023-09-08T19:55:12.248Z,85.24
2023-09-08T19:57:40.951Z,85.96
2023-09-08T20:00:10.562Z,86.30
2023-09-08T20:02:39.489Z,87.16
2023-09-08T20:05:08.826Z,86.81
2023-09-08T20:07:39.617Z,87.02
2023-09-08T20:10:10.360Z,87.70
2023-09-08T20:12:42.742Z,88.24
2023-09-08T20:15:12.754Z,88.36
2023-09-08T20:17:43.939Z,88.72
2023-09-08T20:20:13.538Z,89.05
2023-09-08T20:22:42.425Z,90.27
2023-09-08T20:25:11.423Z,90.29
2023-09-08T20:27:41.609Z,90.39
2023-09-08T20:30:11.231Z,90.60
2023-09-08T20:32:39.891Z,90.69
2023-09-08T20:35:09.952Z,90.98
2023-09-08T20:37:39.678Z,90.88
2023-09-08T20:40:10.421Z,90.80
2023-09-08T20:42:39.112Z,91.28
2023-09-08T20:45:10.219Z,91.58
2023-09-08T20:47:39.083Z,91.83
2023-09-08T20:50:08.798Z,92.21
2023-09-08T20:52:38.505Z,92.51
2023-09-08T20:55:12.848Z,92.58
2023-09-08T20:57:41.885Z,93.17
2023-09-08T21:00:14.206Z,93.44
2023-09-08T21:02:43.247Z,93.26
2023-09-08T21:05:12.122Z,93.35
2023-09-08T21:07:41.460Z,93.80
2023-09-08T21:10:10.809Z,94.67
2023-09-08T21:12:39.629Z,95.38
2023-09-08T21:15:09.378Z,95.76
2023-09-08T21:17:39.648Z,96.31
2023-09-08T21:20:09.897Z,96.63
2023-09-08T21:22:38.821Z,96.88
2023-09-08T21:25:08.023Z,96.16
2023-09-08T21:27:36.996Z,96.45
2023-09-08T21:30:06.759Z,96.45
2023-09-08T21:32:35.840Z,96.49
2023-09-08T21:35:06.938Z,96.47
2023-09-08T21:37:36.521Z,96.66
2023-09-08T21:40:06.238Z,96.92
2023-09-08T21:42:35.196Z,97.13
2023-09-08T21:45:06.634Z,97.12
2023-09-08T21:47:35.996Z,96.73
2023-09-08T21:50:06.967Z,96.95
2023-09-08T21:52:39.049Z,97.11
2023-09-08T21:55:09.290Z,97.63
2023-09-08T21:58:01.604Z,98.57
2023-09-08T22:00:34.680Z,99.30
2023-09-08T22:03:04.389Z,99.70
2023-09-08T22:05:35.933Z,99.90
2023-09-08T22:08:05.787Z,99.16
2023-09-08T22:10:34.498Z,98.69
2023-09-08T22:13:03.792Z,98.88
2023-09-08T22:15:34.179Z,98.83
2023-09-08T22:18:03.418Z,98.90
2023-09-08T22:20:32.312Z,99.09
2023-09-08T22:23:02.466Z,99.51
2023-09-08T22:25:35.174Z,100.00
2023-09-08T22:28:04.628Z,100.00
2023-09-08T22:30:33.826Z,100.00
2023-09-08T22:33:05.518Z,100.00
2023-09-08T22:35:34.218Z,100.00
2023-09-08T22:38:05.941Z,100.00
2023-09-08T22:40:34.746Z,100.00
2023-09-08T22:43:03.825Z,100.00
2023-09-08T22:45:32.742Z,100.00
2023-09-08T22:48:01.740Z,100.00
2023-09-08T22:50:31.416Z,100.00
2023-09-08T22:53:01.359Z,100.00
2023-09-08T22:55:32.102Z,100.00
2023-09-08T22:58:00.898Z,100.00
2023-09-08T23:00:29.619Z,100.00
2023-09-08T23:02:58.500Z,100.00
2023-09-08T23:05:27.265Z,100.00
2023-09-08T23:07:55.873Z,100.00
2023-09-08T23:10:24.502Z,100.00
2023-09-08T23:12:54.457Z,99.93
2023-09-08T23:15:25.871Z,100.00
2023-09-08T23:17:54.748Z,98.64
2023-09-08T23:20:23.588Z,98.94
2023-09-08T23:22:52.982Z,99.63
2023-09-08T23:25:21.894Z,99.59
2023-09-08T23:27:50.928Z,99.02
2023-09-08T23:30:21.510Z,99.36
2023-09-08T23:32:50.847Z,99.21
2023-09-08T23:35:19.508Z,99.28
2023-09-08T23:37:48.972Z,99.59
2023-09-08T23:40:17.696Z,99.33
2023-09-08T23:42:49.007Z,98.72
2023-09-08T23:45:18.139Z,98.52
2023-09-08T23:47:51.657Z,98.40
2023-09-08T23:50:20.816Z,98.88
2023-09-08T23:52:49.429Z,99.10
2023-09-08T23:55:18.298Z,98.96
2023-09-08T23:57:47.335Z,99.03
